Portada
METAR-TAF:

METAR-TAF

Aeroports :

Formosa, Argentina

latitud: 26-12S, longitud: 058-14W, altitud: 59 m

Observació

L'informe es va fer fa 41 minuts, a les 22:00 UTC
Vent calma
Temperatura 19°C
Humitat 83%
Pressió 1008 hPa
Visibilitat: 6000 m
Cel ennuvolat a una alçada de 1800 ft
Cel cobert a una alçada de 10000 ft

METAR: SARF 172200Z 00000KT 6000 BKN018 OVC100 19/16 Q1008

Hora: 19:41 (22:41 UTC)

Pronòstic

L'informe es va fer fa 5 hores i 41 minuts, a les 17:00 UTC
Pronòstic vàlid del 17 a les 18 UTC al 18 a les 18 UTC
Vent 10 kt del Sud/Sud-Est
Visibilitat 10 km o més
Cel cobert a una alçada de 1500 ft
Evolucionant progressivament
l' 18 a les 10 UTC al 18 a les 12 UTC
Visibilitat 10 km o més
sense núvols per sota de 1500 mi sense presència de cumulonimbus.

TAF: SARF 171700Z 1718/1818 16010KT 9999 OVC015 TX26/1818Z TN16/1810Z BECMG 1810/1812 CAVOK

Observacions i pronòstics meteorològics de més de 4000 aeroports (METAR i TAF).

Les estacions disponibles són els punts grocs i vermells al mapa.

Posi el ratolí al punt desitjat per veure el nom de l'estació.

Feu clic per veure les observacions i els pronòstics meteorològics.

Per canviar el mapa: feu clic els botons verds amb una creu de color negre per apropar; al botó verd amb un guió per allunyar la imatge; o en les fletxes verdes per a mapes adjacents.


METAR-TAF: